Time;durP1;ratioP1;P1;durP2;ratioP2;P2;SDS_P1;SDS_P2;PMS_P1;PMS_P2;Temp;Humidity;BMP_temperature;BMP_pressure;BME280_temperature;BME280_humidity;BME280_pressure;Samples;Min_cycle;Max_cycle;Signal;HPM_P1;HPM_P2
2023/10/16 00:01:58;;;;;;;3.90;3.00;;;;;;;5.18;90.12;98754.13;4176526;28;20661;-89
2023/10/16 00:04:01;;;;;;;5.50;3.13;;;;;;;5.20;90.37;98755.78;4161035;28;20214;-90
2023/10/16 00:06:05;;;;;;;5.38;3.00;;;;;;;5.23;90.17;98750.50;4169607;28;20257;-90
2023/10/16 00:08:08;;;;;;;5.72;3.65;;;;;;;5.28;90.95;98756.31;4192957;28;20660;-90
2023/10/16 00:10:13;;;;;;;4.68;3.40;;;;;;;5.35;90.81;98752.63;4173283;28;20237;-90
2023/10/16 00:12:19;;;;;;;4.25;3.70;;;;;;;5.38;90.16;98755.09;4174856;28;20199;-90
2023/10/16 00:14:24;;;;;;;5.88;3.15;;;;;;;5.35;89.61;98749.16;4157280;28;20296;-90
2023/10/16 00:16:30;;;;;;;3.25;2.95;;;;;;;5.38;89.41;98756.81;4171079;28;20696;-88
2023/10/16 00:18:34;;;;;;;4.45;3.35;;;;;;;5.39;89.30;98749.00;4178442;28;20206;-89
2023/10/16 00:20:40;;;;;;;3.75;3.38;;;;;;;5.40;89.21;98745.53;4176871;28;20202;-90
2023/10/16 00:22:44;;;;;;;4.00;3.25;;;;;;;5.42;89.72;98743.72;4173405;28;20356;-91
2023/10/16 00:24:47;;;;;;;3.30;2.97;;;;;;;5.41;89.80;98754.97;4172619;28;20791;-90
2023/10/16 00:26:51;;;;;;;4.28;3.05;;;;;;;5.44;89.88;98760.03;4177353;28;21195;-90
2023/10/16 00:29:07;;;;;;;4.13;3.05;;;;;;;5.43;89.66;98766.09;4179925;28;20245;-89
2023/10/16 00:31:11;;;;;;;3.80;2.53;;;;;;;5.43;88.88;98758.34;4158865;28;20230;-89
2023/10/16 00:33:14;;;;;;;4.35;2.95;;;;;;;5.40;89.65;98765.38;4207622;28;20214;-88
2023/10/16 00:35:23;;;;;;;3.97;3.28;;;;;;;5.43;89.90;98773.84;4156859;28;20256;-90
2023/10/16 00:37:27;;;;;;;7.97;3.65;;;;;;;5.42;90.53;98767.00;4161187;28;20401;-88
2023/10/16 00:39:30;;;;;;;7.25;3.55;;;;;;;5.41;90.63;98761.88;4177722;28;20215;-86
2023/10/16 00:41:33;;;;;;;3.85;3.03;;;;;;;5.42;90.55;98764.41;4174518;28;20263;-86
2023/10/16 00:43:37;;;;;;;4.90;3.00;;;;;;;5.39;90.55;98751.59;4157558;28;20235;-86
2023/10/16 00:45:46;;;;;;;4.38;3.03;;;;;;;5.39;90.06;98759.34;4158704;28;20772;-86
2023/10/16 00:47:50;;;;;;;4.85;3.00;;;;;;;5.40;89.31;98750.69;4154875;28;20294;-85
2023/10/16 00:49:54;;;;;;;3.17;2.58;;;;;;;5.36;88.73;98750.88;4175904;28;20298;-86
2023/10/16 00:51:59;;;;;;;3.50;3.20;;;;;;;5.31;88.99;98752.78;4152029;28;20236;-86
2023/10/16 00:54:15;;;;;;;8.18;2.92;;;;;;;5.24;88.55;98753.91;4172639;28;20684;-86
2023/10/16 00:56:19;;;;;;;4.38;3.42;;;;;;;5.19;87.88;98750.66;4187223;28;20212;-86
2023/10/16 00:58:22;;;;;;;5.00;3.47;;;;;;;5.14;88.53;98743.06;4190901;28;20258;-86
2023/10/16 01:00:26;;;;;;;8.88;3.20;;;;;;;5.14;88.21;98742.19;4178417;28;20261;-86
2023/10/16 01:02:32;;;;;;;3.05;2.75;;;;;;;5.11;88.08;98738.91;4192031;28;20207;-86
2023/10/16 01:04:35;;;;;;;3.55;2.75;;;;;;;5.07;86.67;98739.94;4169759;28;20264;-85
2023/10/16 01:06:40;;;;;;;4.75;3.22;;;;;;;4.99;87.71;98741.91;4178048;28;20223;-86
2023/10/16 01:08:46;;;;;;;3.88;2.78;;;;;;;5.01;87.68;98733.22;4170084;28;20234;-86
2023/10/16 01:10:49;;;;;;;5.20;3.05;;;;;;;4.98;87.71;98728.16;4185362;28;20311;-86
2023/10/16 01:12:55;;;;;;;4.47;2.97;;;;;;;4.95;88.87;98719.69;4174430;28;20217;-86
2023/10/16 01:14:58;;;;;;;4.38;3.05;;;;;;;4.91;88.13;98720.69;4159568;28;20297;-85
2023/10/16 01:17:02;;;;;;;3.47;3.10;;;;;;;4.82;88.12;98710.69;4190916;28;20688;-85
2023/10/16 01:19:06;;;;;;;4.18;3.58;;;;;;;4.81;87.69;98716.75;4172679;28;20212;-85
2023/10/16 01:21:13;;;;;;;5.25;3.05;;;;;;;4.76;88.03;98716.06;4173026;28;20211;-86
2023/10/16 01:23:19;;;;;;;4.63;3.45;;;;;;;4.76;88.90;98721.25;4173406;28;20202;-85
2023/10/16 01:25:24;;;;;;;7.05;3.50;;;;;;;4.77;88.87;98725.53;4176508;28;20256;-86
2023/10/16 01:27:27;;;;;;;4.97;3.03;;;;;;;4.82;89.20;98726.19;4168227;28;20293;-86
2023/10/16 01:29:33;;;;;;;8.65;3.45;;;;;;;4.86;90.46;98723.44;4174248;28;20207;-86
2023/10/16 01:31:37;;;;;;;4.32;2.80;;;;;;;4.88;90.27;98723.38;4173511;28;20262;-85
2023/10/16 01:33:44;;;;;;;4.15;3.10;;;;;;;4.92;90.66;98719.81;4172567;28;20232;-86
2023/10/16 01:35:50;;;;;;;5.63;2.95;;;;;;;4.93;91.43;98716.31;4160830;28;20210;-85
2023/10/16 01:37:56;;;;;;;4.07;3.05;;;;;;;4.95;91.24;98719.69;4185948;28;20205;-86
2023/10/16 01:40:17;;;;;;;3.38;2.65;;;;;;;4.95;89.95;98727.44;4155744;28;20302;-86
2023/10/16 01:42:20;;;;;;;4.05;3.10;;;;;;;4.94;90.11;98718.00;4207794;28;20197;-86
2023/10/16 01:44:23;;;;;;;4.10;2.90;;;;;;;4.92;90.32;98715.47;4174976;28;20289;-85
2023/10/16 01:46:28;;;;;;;4.05;3.05;;;;;;;4.94;90.25;98729.16;4182379;28;20209;-86
2023/10/16 01:48:31;;;;;;;5.03;2.75;;;;;;;4.98;90.82;98719.59;4166566;28;20212;-89
2023/10/16 01:50:38;;;;;;;4.15;3.13;;;;;;;4.98;90.06;98719.59;4159478;28;20219;-90
2023/10/16 01:52:41;;;;;;;4.40;3.00;;;;;;;4.96;90.15;98718.78;4177841;28;20298;-90
2023/10/16 01:54:46;;;;;;;4.72;3.45;;;;;;;4.94;90.41;98712.84;4203180;28;20566;-90
2023/10/16 01:56:51;;;;;;;10.35;4.00;;;;;;;4.93;91.11;98716.31;4173234;28;20649;-91
2023/10/16 01:58:56;;;;;;;15.23;4.18;;;;;;;4.91;90.63;98713.78;4177567;28;20634;-91
2023/10/16 02:00:59;;;;;;;6.68;3.40;;;;;;;4.93;90.71;98708.56;4160815;28;20930;-89
2023/10/16 02:03:08;;;;;;;8.20;4.00;;;;;;;4.92;90.56;98705.13;4190660;28;20217;-90
2023/10/16 02:05:12;;;;;;;8.98;3.80;;;;;;;4.88;91.52;98700.97;4171700;28;20207;-88
2023/10/16 02:07:16;;;;;;;7.53;3.58;;;;;;;4.86;91.23;98694.19;4177595;28;20228;-90
2023/10/16 02:09:23;;;;;;;3.80;2.85;;;;;;;4.85;91.29;98703.66;4178877;28;20635;-88
2023/10/16 02:11:27;;;;;;;7.30;3.20;;;;;;;4.83;89.50;98699.47;4203707;28;20232;-90
2023/10/16 02:13:35;;;;;;;11.85;3.80;;;;;;;4.83;91.12;98699.47;4176936;28;20601;-89
2023/10/16 02:15:38;;;;;;;5.75;3.58;;;;;;;4.81;90.78;98704.69;4162990;28;20202;-90
2023/10/16 02:17:43;;;;;;;17.05;4.13;;;;;;;4.81;90.78;98706.41;4175154;28;20191;-90
2023/10/16 02:19:47;;;;;;;10.38;3.63;;;;;;;4.81;92.03;98696.94;4178991;28;20229;-90
2023/10/16 02:21:53;;;;;;;5.53;3.50;;;;;;;4.80;91.31;98700.41;4194606;28;20271;-89
2023/10/16 02:24:03;;;;;;;9.00;3.90;;;;;;;4.79;91.04;98693.53;4178620;28;20226;-89
2023/10/16 02:26:09;;;;;;;14.63;4.20;;;;;;;4.78;90.92;98691.00;4179635;28;20210;-89
2023/10/16 02:28:13;;;;;;;29.63;4.80;;;;;;;4.74;92.11;98686.88;4158534;28;20697;-90
2023/10/16 02:30:33;;;;;;;20.80;3.80;;;;;;;4.77;91.65;98685.00;4157360;28;20239;-90
2023/10/16 02:32:39;;;;;;;9.90;3.65;;;;;;;4.79;92.09;98682.38;4175121;28;20236;-90
2023/10/16 02:34:42;;;;;;;12.30;3.92;;;;;;;4.76;91.45;98687.66;4173539;28;20573;-89
2023/10/16 02:36:47;;;;;;;16.40;4.05;;;;;;;4.70;91.20;98686.13;4174299;28;20633;-89
2023/10/16 02:38:51;;;;;;;8.35;3.30;;;;;;;4.66;92.43;98685.44;4183860;28;20569;-89
2023/10/16 02:41:00;;;;;;;10.55;3.75;;;;;;;4.62;92.94;98676.97;4173592;28;20964;-90
2023/10/16 02:43:04;;;;;;;8.05;3.72;;;;;;;4.60;92.56;98681.38;4158437;28;20274;-89
2023/10/16 02:45:23;;;;;;;13.25;4.05;;;;;;;4.60;92.33;98685.66;4168679;28;20218;-90
2023/10/16 02:47:28;;;;;;;12.77;3.92;;;;;;;4.56;91.69;98679.78;4180603;28;20258;-90
2023/10/16 02:49:33;;;;;;;8.70;3.30;;;;;;;4.55;91.27;98680.66;4161680;28;20221;-89
2023/10/16 02:51:37;;;;;;;9.02;3.20;;;;;;;4.52;91.98;98680.78;4170279;28;20250;-88
2023/10/16 02:53:41;;;;;;;12.02;3.28;;;;;;;4.47;92.58;98682.69;4160894;28;20710;-90
2023/10/16 02:55:44;;;;;;;15.48;4.95;;;;;;;4.50;92.33;98685.16;4159732;28;20207;-89
2023/10/16 02:57:47;;;;;;;16.90;3.90;;;;;;;4.52;93.03;98682.53;4193059;28;20236;-91
2023/10/16 02:59:51;;;;;;;33.13;5.07;;;;;;;4.56;93.33;98681.53;4175311;28;20203;-90
2023/10/16 03:01:53;;;;;;;23.80;4.03;;;;;;;4.57;93.06;98684.06;4176820;28;20214;-90
2023/10/16 03:03:58;;;;;;;19.45;3.72;;;;;;;4.59;92.75;98671.94;4173612;28;20237;-89
2023/10/16 03:06:03;;;;;;;14.93;3.00;;;;;;;4.61;93.08;98682.19;4160852;28;20270;-90
2023/10/16 03:08:08;;;;;;;19.77;4.03;;;;;;;4.58;92.81;98680.56;4161492;28;20309;-89
2023/10/16 03:10:11;;;;;;;26.88;5.20;;;;;;;4.60;92.83;98680.50;4180921;28;20218;-88
2023/10/16 03:12:14;;;;;;;34.58;4.60;;;;;;;4.63;91.96;98676.09;4175592;28;20202;-89
2023/10/16 03:14:21;;;;;;;18.55;3.42;;;;;;;4.60;92.45;98680.50;4180583;28;20634;-89
2023/10/16 03:16:26;;;;;;;16.38;3.00;;;;;;;4.58;92.46;98674.56;4172330;28;20214;-89
2023/10/16 03:18:30;;;;;;;19.40;3.70;;;;;;;4.52;92.37;98675.59;4170408;28;20313;-90
2023/10/16 03:20:36;;;;;;;20.35;3.58;;;;;;;4.46;93.77;98670.66;4200509;28;20220;-89
2023/10/16 03:22:40;;;;;;;13.13;3.72;;;;;;;4.45;92.96;98670.72;4190202;28;20252;-90
2023/10/16 03:24:45;;;;;;;13.65;4.20;;;;;;;4.39;92.72;98679.53;4189638;28;20760;-90
2023/10/16 03:26:50;;;;;;;17.52;3.55;;;;;;;4.35;93.62;98671.94;4188974;28;20205;-90
2023/10/16 03:28:54;;;;;;;25.45;4.20;;;;;;;4.30;93.46;98674.69;4177904;28;20909;-90
2023/10/16 03:31:03;;;;;;;17.05;3.70;;;;;;;4.25;93.26;98667.97;4159863;28;20251;-90
2023/10/16 03:33:07;;;;;;;11.10;3.78;;;;;;;4.23;92.55;98670.63;4192249;28;20635;-92
2023/10/16 03:35:14;;;;;;;10.07;3.13;;;;;;;4.20;92.56;98675.06;4194279;28;20197;-91
2023/10/16 03:37:19;;;;;;;13.10;3.20;;;;;;;4.18;92.07;98675.97;4174983;28;20256;-89
2023/10/16 03:39:23;;;;;;;19.20;3.03;;;;;;;4.15;93.82;98674.38;4171860;28;20206;-90
2023/10/16 03:41:32;;;;;;;11.70;3.22;;;;;;;4.14;92.97;98675.25;4176137;28;20714;-90
2023/10/16 03:43:34;;;;;;;9.93;2.42;;;;;;;4.18;92.61;98674.28;4208003;28;20201;-90
2023/10/16 03:45:40;;;;;;;8.32;3.17;;;;;;;4.15;91.89;98671.78;4175139;28;20735;-89
2023/10/16 03:47:44;;;;;;;14.07;3.10;;;;;;;4.16;92.46;98675.22;4173515;28;20208;-89
2023/10/16 03:49:47;;;;;;;6.88;2.67;;;;;;;4.17;91.83;98672.56;4168925;28;20195;-90
2023/10/16 03:51:52;;;;;;;20.80;3.95;;;;;;;4.22;92.48;98675.84;4176886;28;20209;-89
2023/10/16 03:53:56;;;;;;;17.75;3.45;;;;;;;4.28;92.60;98673.03;4207187;28;20239;-90
2023/10/16 03:56:00;;;;;;;33.50;5.30;;;;;;;4.27;92.16;98672.22;4177513;28;20731;-90
2023/10/16 03:58:02;;;;;;;41.08;7.43;;;;;;;4.22;92.83;98668.09;4172188;28;20248;-90
2023/10/16 04:00:14;;;;;;;20.65;6.13;;;;;;;4.20;92.12;98665.56;4176968;28;20200;-89
2023/10/16 04:02:19;;;;;;;8.35;2.70;;;;;;;4.13;92.46;98659.81;4178668;28;20684;-90
2023/10/16 04:04:25;;;;;;;8.98;2.63;;;;;;;4.08;92.47;98659.97;4171730;28;20217;-90
2023/10/16 04:06:30;;;;;;;19.85;3.38;;;;;;;4.03;93.41;98656.72;4175037;28;20235;-87
2023/10/16 04:08:33;;;;;;;10.35;2.97;;;;;;;4.04;93.16;98657.56;4164170;28;20737;-85
2023/10/16 04:10:40;;;;;;;8.88;2.88;;;;;;;4.05;92.63;98660.09;4169396;28;20536;-86
2023/10/16 04:12:51;;;;;;;15.43;2.63;;;;;;;4.06;92.01;98653.19;4176238;28;20226;-86
2023/10/16 04:14:56;;;;;;;5.65;3.15;;;;;;;4.04;92.82;98657.56;4157088;28;20230;-86
2023/10/16 04:17:00;;;;;;;6.13;3.45;;;;;;;4.00;92.14;98648.22;4176953;28;20688;-86
2023/10/16 04:19:34;;;;;;;6.97;3.22;;;;;;;4.03;92.05;98650.69;4177024;28;20707;-86
2023/10/16 04:21:37;;;;;;;7.70;3.38;;;;;;;4.08;92.57;98649.66;4186546;28;20627;-86
2023/10/16 04:23:52;;;;;;;7.20;3.50;;;;;;;4.09;91.28;98645.34;4175953;28;20210;-85
2023/10/16 04:28:18;;;;;;;4.70;2.95;;;;;;;4.04;90.62;98647.25;4171070;28;20222;-85
2023/10/16 04:30:39;;;;;;;4.82;2.67;;;;;;;4.04;92.39;98642.91;4151865;28;20595;-86
2023/10/16 04:32:56;;;;;;;3.40;3.03;;;;;;;4.10;92.29;98641.88;4155238;28;20195;-86
2023/10/16 04:35:28;;;;;;;3.50;2.67;;;;;;;4.14;91.67;98648.63;4172051;28;20742;-85
2023/10/16 04:37:36;;;;;;;3.80;2.58;;;;;;;4.12;91.11;98637.50;4175057;28;20297;-86
2023/10/16 04:44:24;;;;;;;3.53;2.97;;;;;;;4.18;91.51;98640.72;4175081;28;20289;-86
2023/10/16 04:46:54;;;;;;;3.92;3.40;;;;;;;4.20;92.56;98638.09;4169706;28;20206;-86
2023/10/16 04:48:51;;;;;;;5.20;3.60;;;;;;;4.20;92.37;98633.75;4184164;28;20707;-86
2023/10/16 04:53:39;;;;;;;5.20;3.30;;;;;;;4.14;91.86;98628.81;4187815;28;20217;-86
2023/10/16 04:55:54;;;;;;;9.77;4.18;;;;;;;4.08;90.63;98618.69;4182331;28;20204;-86
2023/10/16 04:58:27;;;;;;;15.10;3.90;;;;;;;4.08;91.05;98617.88;4187518;28;20216;-86
2023/10/16 05:00:54;;;;;;;4.68;3.83;;;;;;;4.06;90.41;98620.50;4172393;28;20305;-86
2023/10/16 05:02:52;;;;;;;11.05;4.40;;;;;;;4.02;90.51;98616.31;4172015;28;20206;-86
2023/10/16 05:10:12;;;;;;;6.30;3.92;;;;;;;3.88;91.29;98607.41;4167702;28;20727;-86
2023/10/16 05:15:20;;;;;;;7.53;4.38;;;;;;;3.90;91.28;98611.59;4172638;28;20206;-87
2023/10/16 05:17:21;;;;;;;8.48;4.18;;;;;;;3.87;90.98;98613.44;4176349;28;20300;-86
2023/10/16 05:19:44;;;;;;;10.27;4.07;;;;;;;3.80;91.58;98604.19;4158209;28;20204;-86
2023/10/16 05:22:02;;;;;;;13.00;4.18;;;;;;;3.72;92.22;98603.63;4158144;28;20204;-86
2023/10/16 06:15:46;;;;;;;9.15;5.00;;;;;;;3.93;90.27;98619.22;4173063;28;20198;-84
2023/10/16 06:17:52;;;;;;;10.05;5.63;;;;;;;3.93;90.89;98633.88;4161527;28;20317;-85
2023/10/16 06:19:56;;;;;;;13.48;4.10;;;;;;;3.88;90.43;98631.44;4170961;28;20205;-85
2023/10/16 06:22:06;;;;;;;8.13;4.03;;;;;;;3.88;90.89;98636.59;4177544;28;20212;-86
2023/10/16 06:24:25;;;;;;;6.90;4.25;;;;;;;3.86;90.14;98633.22;4185495;28;20545;-85
2023/10/16 06:26:28;;;;;;;5.32;3.53;;;;;;;3.92;89.95;98630.41;4159859;28;20211;-85
2023/10/16 06:28:32;;;;;;;5.70;4.20;;;;;;;3.95;90.91;98634.66;4183839;28;20687;-86
2023/10/16 06:30:37;;;;;;;7.50;4.00;;;;;;;3.97;92.21;98640.59;4179293;28;20674;-86
2023/10/16 06:32:41;;;;;;;16.30;4.95;;;;;;;3.99;92.30;98644.81;4175056;28;20664;-86
2023/10/16 06:34:44;;;;;;;7.25;4.18;;;;;;;4.01;91.94;98643.00;4173833;28;20604;-85
2023/10/16 06:36:51;;;;;;;6.53;3.88;;;;;;;4.07;92.36;98647.13;4175559;28;20201;-86
2023/10/16 06:38:54;;;;;;;12.95;4.40;;;;;;;4.13;90.31;98645.19;4172976;28;20313;-86
2023/10/16 06:40:57;;;;;;;10.35;4.55;;;;;;;4.18;91.06;98648.47;4175287;28;20633;-86
2023/10/16 06:43:10;;;;;;;7.55;4.03;;;;;;;4.20;91.95;98653.56;4179397;28;20296;-86
2023/10/16 06:45:19;;;;;;;11.32;4.00;;;;;;;4.20;91.80;98660.41;4175992;28;20699;-86
2023/10/16 06:47:34;;;;;;;12.23;4.40;;;;;;;4.22;92.29;98657.75;4177096;28;20236;-86
2023/10/16 06:49:39;;;;;;;16.80;4.72;;;;;;;4.27;92.57;98658.47;4177968;28;20218;-86
2023/10/16 06:51:43;;;;;;;18.90;4.10;;;;;;;4.36;92.38;98660.72;4174109;28;20310;-86
2023/10/16 06:53:49;;;;;;;14.88;4.10;;;;;;;4.47;92.50;98649.13;4177022;28;20587;-86
2023/10/16 06:55:52;;;;;;;17.95;4.60;;;;;;;4.52;92.83;98654.94;4188038;28;20228;-85
2023/10/16 06:57:56;;;;;;;11.40;4.40;;;;;;;4.57;93.73;98657.38;4189130;28;20252;-85
2023/10/16 07:00:00;;;;;;;14.27;4.25;;;;;;;4.59;93.80;98659.00;4177951;28;20227;-85
2023/10/16 07:02:03;;;;;;;22.70;4.40;;;;;;;4.68;93.28;98653.53;4176199;28;20348;-86
2023/10/16 07:04:06;;;;;;;11.30;4.72;;;;;;;4.84;93.33;98652.91;4172991;28;20198;-86
2023/10/16 07:06:12;;;;;;;14.55;3.95;;;;;;;5.03;93.55;98660.81;4179184;28;20688;-86
2023/10/16 07:08:17;;;;;;;7.22;4.05;;;;;;;5.18;92.91;98659.31;4177013;28;20248;-86
2023/10/16 07:10:23;;;;;;;7.65;4.65;;;;;;;5.40;93.46;98673.13;4164006;28;20236;-86
2023/10/16 07:12:26;;;;;;;9.35;4.50;;;;;;;5.59;92.42;98674.06;4171593;28;20709;-86
2023/10/16 07:14:29;;;;;;;6.55;4.75;;;;;;;5.82;92.07;98671.47;4177795;28;20207;-86
2023/10/16 07:16:33;;;;;;;7.38;5.55;;;;;;;6.06;92.23;98679.06;4176148;28;20226;-86
2023/10/16 07:18:42;;;;;;;6.70;5.07;;;;;;;6.34;92.16;98683.00;4188925;28;20734;-86
2023/10/16 07:20:54;;;;;;;6.72;4.85;;;;;;;6.65;91.05;98683.41;4188815;28;20210;-86
2023/10/16 07:23:00;;;;;;;6.13;4.60;;;;;;;6.88;89.40;98688.41;4172898;28;20207;-85
2023/10/16 07:25:22;;;;;;;6.47;4.40;;;;;;;7.08;89.76;98677.09;4171816;28;20222;-86
2023/10/16 07:27:31;;;;;;;5.47;4.88;;;;;;;7.38;89.79;98687.81;4171597;28;20210;-85
2023/10/16 07:29:35;;;;;;;5.68;4.57;;;;;;;7.59;88.82;98687.63;4174267;28;20257;-84
2023/10/16 07:31:39;;;;;;;4.50;3.83;;;;;;;7.77;87.94;98681.59;4191115;28;20217;-85
2023/10/16 07:33:42;;;;;;;5.18;4.32;;;;;;;7.89;87.08;98686.19;4177715;28;20251;-85
2023/10/16 07:35:45;;;;;;;6.28;5.05;;;;;;;8.08;86.43;98677.44;4176897;28;20235;-85
2023/10/16 07:37:53;;;;;;;8.27;5.40;;;;;;;8.26;88.00;98682.59;4185565;28;20790;-85
2023/10/16 07:39:55;;;;;;;7.00;5.15;;;;;;;8.38;85.29;98671.59;4175604;28;20196;-85
2023/10/16 07:42:01;;;;;;;6.28;5.05;;;;;;;8.44;83.67;98668.69;4177428;28;20307;-85
2023/10/16 07:44:06;;;;;;;7.00;5.25;;;;;;;8.49;87.00;98659.75;4177917;28;20218;-85
2023/10/16 07:46:17;;;;;;;6.63;5.55;;;;;;;8.59;83.70;98670.50;4178056;28;20622;-85
2023/10/16 07:48:21;;;;;;;6.15;5.35;;;;;;;8.64;84.01;98668.50;4175492;28;20226;-85
2023/10/16 07:50:27;;;;;;;6.43;5.35;;;;;;;8.72;86.00;98666.34;4170945;28;20229;-85
2023/10/16 07:52:33;;;;;;;6.93;5.53;;;;;;;8.82;83.37;98662.34;4169517;28;20237;-85
2023/10/16 07:54:36;;;;;;;5.07;4.57;;;;;;;8.95;83.59;98661.63;4177890;28;20210;-84
2023/10/16 07:56:40;;;;;;;6.22;5.43;;;;;;;9.06;84.64;98667.91;4171057;28;20621;-85
2023/10/16 07:58:48;;;;;;;10.15;5.57;;;;;;;9.12;84.42;98670.19;4172936;28;20230;-84
2023/10/16 08:01:17;;;;;;;6.78;5.43;;;;;;;9.25;84.72;98666.03;4158847;28;20700;-85
2023/10/16 08:03:21;;;;;;;8.35;5.97;;;;;;;9.42;84.92;98666.78;4176559;28;20234;-85
2023/10/16 08:05:26;;;;;;;6.57;5.30;;;;;;;9.60;85.43;98659.75;4174202;28;20202;-86
2023/10/16 08:07:46;;;;;;;6.45;5.45;;;;;;;9.75;84.26;98666.69;4189268;28;20706;-85
2023/10/16 08:09:49;;;;;;;7.47;5.85;;;;;;;9.99;85.79;98666.19;4182986;28;20304;-85
2023/10/16 08:11:57;;;;;;;6.22;4.75;;;;;;;10.10;84.25;98666.41;4166997;28;20202;-85
2023/10/16 08:14:06;;;;;;;6.03;5.43;;;;;;;10.29;86.13;98659.22;4150275;28;20252;-85
2023/10/16 08:16:10;;;;;;;5.97;5.38;;;;;;;10.49;87.00;98671.00;4186466;28;20296;-85
2023/10/16 08:18:13;;;;;;;6.33;4.67;;;;;;;10.63;83.42;98663.22;4189624;28;20308;-85
2023/10/16 08:20:18;;;;;;;6.57;4.73;;;;;;;10.80;81.59;98670.84;4175994;28;20665;-85
2023/10/16 08:22:25;;;;;;;6.67;5.60;;;;;;;10.96;83.53;98662.00;4169753;28;20627;-85
2023/10/16 08:24:29;;;;;;;6.10;5.50;;;;;;;11.17;81.56;98671.16;4175839;28;21189;-85
2023/10/16 08:26:42;;;;;;;6.00;5.03;;;;;;;11.35;84.54;98672.59;4172642;28;21218;-85
2023/10/16 08:28:45;;;;;;;7.70;4.73;;;;;;;11.48;81.64;98665.72;4173678;28;20698;-85
2023/10/16 08:30:54;;;;;;;5.30;4.80;;;;;;;11.59;84.34;98674.56;4154170;28;20665;-85
2023/10/16 08:33:06;;;;;;;6.23;4.77;;;;;;;11.68;82.07;98671.38;4160661;28;21179;-85
2023/10/16 08:35:10;;;;;;;5.90;4.83;;;;;;;11.79;81.66;98677.59;4175181;28;21227;-85
2023/10/16 08:37:13;;;;;;;6.73;5.30;;;;;;;11.99;82.57;98682.38;4174402;28;21105;-86
2023/10/16 08:39:16;;;;;;;6.17;4.80;;;;;;;11.98;78.84;98672.88;4175730;28;20625;-86
2023/10/16 08:41:42;;;;;;;6.80;5.00;;;;;;;11.92;80.20;98678.50;4175702;28;20656;-85
2023/10/16 08:43:54;;;;;;;5.47;4.97;;;;;;;11.98;78.57;98678.09;4172868;28;21014;-85
2023/10/16 08:45:58;;;;;;;4.50;3.90;;;;;;;12.12;76.44;98680.66;4165237;28;20652;-85
2023/10/16 08:48:06;;;;;;;4.03;3.20;;;;;;;12.06;75.43;98675.00;4177117;28;20707;-89
2023/10/16 08:50:17;;;;;;;4.30;3.57;;;;;;;12.05;77.02;98673.31;4178057;28;20635;-89
2023/10/16 08:52:22;;;;;;;7.73;5.90;;;;;;;12.10;75.71;98679.06;4173250;28;21158;-88
2023/10/16 08:56:48;;;;;;;3.67;3.10;;;;;;;12.02;75.31;98676.94;4181417;28;20723;-87
2023/10/16 08:58:55;;;;;;;3.83;3.40;;;;;;;12.10;75.62;98677.28;4191540;28;20654;-89
2023/10/16 09:00:58;;;;;;;3.50;3.10;;;;;;;12.16;76.23;98684.72;4192473;28;20704;-90
2023/10/16 09:03:04;;;;;;;4.53;3.10;;;;;;;12.14;74.14;98684.00;4174772;28;20658;-89
2023/10/16 09:05:09;;;;;;;4.37;2.93;;;;;;;11.98;72.68;98685.94;4174201;28;20633;-89
2023/10/16 09:07:12;;;;;;;4.33;2.90;;;;;;;11.97;74.58;98680.81;4176519;28;20617;-88
2023/10/16 09:09:16;;;;;;;4.73;2.80;;;;;;;11.93;74.98;98668.88;4177969;28;20626;-87
2023/10/16 09:11:20;;;;;;;2.97;2.67;;;;;;;11.86;74.61;98671.03;4160065;28;20661;-88
2023/10/16 09:13:26;;;;;;;3.30;2.87;;;;;;;11.86;73.42;98670.19;4179308;28;20727;-90
2023/10/16 09:15:30;;;;;;;3.20;2.83;;;;;;;12.00;76.43;98672.78;4183492;28;20628;-89
2023/10/16 09:17:34;;;;;;;6.43;3.40;;;;;;;12.02;73.69;98660.44;4179504;28;20842;-88
2023/10/16 09:19:46;;;;;;;5.00;2.80;;;;;;;12.05;74.06;98663.69;4180638;28;20631;-88
2023/10/16 09:22:08;;;;;;;4.13;3.03;;;;;;;12.05;73.08;98662.84;4159894;28;20625;-89
2023/10/16 09:24:13;;;;;;;4.60;3.10;;;;;;;12.03;73.98;98665.56;4178250;28;20632;-89
2023/10/16 09:26:16;;;;;;;3.37;2.50;;;;;;;12.16;73.33;98663.81;4176112;28;20631;-89
2023/10/16 09:28:20;;;;;;;4.00;2.77;;;;;;;12.17;72.39;98651.59;4176970;28;20651;-88
2023/10/16 09:30:23;;;;;;;3.10;2.60;;;;;;;12.20;74.75;98657.44;4176965;28;20706;-87
2023/10/16 09:32:28;;;;;;;5.53;4.07;;;;;;;12.23;74.45;98649.41;4179679;28;20655;-87
2023/10/16 09:34:35;;;;;;;4.43;3.23;;;;;;;12.36;73.54;98655.50;4173523;28;20753;-88
2023/10/16 09:36:40;;;;;;;3.80;2.93;;;;;;;12.32;72.56;98661.88;4191067;28;20623;-88
2023/10/16 09:38:46;;;;;;;5.07;2.90;;;;;;;12.23;73.93;98656.41;4175225;28;20640;-87
2023/10/16 09:41:21;;;;;;;4.57;2.80;;;;;;;12.31;72.50;98654.97;4177502;28;20627;-87
2023/10/16 09:43:25;;;;;;;4.00;2.93;;;;;;;12.29;73.61;98646.38;4178250;28;20662;-89
2023/10/16 09:45:29;;;;;;;3.97;2.90;;;;;;;12.32;72.86;98648.78;4178050;28;20636;-87
2023/10/16 09:47:38;;;;;;;3.83;2.70;;;;;;;12.26;72.96;98650.03;4173867;28;20686;-87
2023/10/16 09:49:41;;;;;;;3.13;2.73;;;;;;;12.29;73.30;98649.81;4197724;28;21043;-86
2023/10/16 09:51:47;;;;;;;3.27;2.67;;;;;;;12.36;72.21;98642.44;4207069;28;20647;-87
2023/10/16 09:54:08;;;;;;;4.23;3.27;;;;;;;12.37;72.26;98644.09;4179063;28;20619;-88
2023/10/16 09:56:13;;;;;;;4.40;2.90;;;;;;;12.50;72.26;98631.88;4176758;28;20617;-88
2023/10/16 09:58:18;;;;;;;4.07;3.00;;;;;;;12.63;73.04;98635.31;4187367;28;20651;-86
2023/10/16 10:00:28;;;;;;;4.30;2.70;;;;;;;12.55;71.44;98628.00;4184377;28;20636;-88
2023/10/16 10:02:37;;;;;;;4.10;2.90;;;;;;;12.45;70.68;98634.81;4188460;28;20624;-86
2023/10/16 10:04:43;;;;;;;3.60;2.73;;;;;;;12.42;71.36;98628.94;4170139;28;20628;-86
2023/10/16 10:06:55;;;;;;;2.80;2.30;;;;;;;12.39;70.36;98627.38;4173964;28;20675;-85
2023/10/16 10:11:26;;;;;;;5.60;2.73;;;;;;;12.68;71.98;98622.78;4177072;28;20653;-86
2023/10/16 10:13:34;;;;;;;3.67;2.90;;;;;;;12.79;71.44;98626.31;4171442;28;20627;-86
2023/10/16 10:15:40;;;;;;;2.97;2.70;;;;;;;12.80;69.79;98628.84;4189560;28;20718;-86
2023/10/16 10:17:44;;;;;;;2.73;2.30;;;;;;;12.85;70.84;98629.41;4174150;28;20691;-85
2023/10/16 10:19:54;;;;;;;3.30;2.40;;;;;;;12.86;69.42;98625.84;4193019;28;20624;-86
2023/10/16 10:22:05;;;;;;;2.73;2.47;;;;;;;12.85;69.40;98616.31;4174842;28;20628;-86
2023/10/16 10:24:09;;;;;;;2.50;2.30;;;;;;;13.04;70.03;98616.72;4212190;28;21223;-86
2023/10/16 10:26:15;;;;;;;2.67;2.20;;;;;;;13.20;70.26;98622.56;4177574;28;20629;-85
2023/10/16 10:28:24;;;;;;;2.20;2.00;;;;;;;13.36;69.85;98620.53;4191695;28;20655;-86
2023/10/16 10:30:27;;;;;;;5.90;3.00;;;;;;;13.37;66.72;98624.81;4193714;28;20654;-86
2023/10/16 10:32:32;;;;;;;2.60;1.87;;;;;;;13.33;66.61;98624.19;4174442;28;21221;-86
2023/10/16 10:34:35;;;;;;;2.47;1.87;;;;;;;13.28;65.49;98609.75;4184696;28;20702;-86
2023/10/16 10:36:40;;;;;;;2.27;1.87;;;;;;;13.16;65.43;98608.00;4209796;28;21787;-85
2023/10/16 10:38:46;;;;;;;3.37;2.30;;;;;;;13.12;66.80;98605.69;4161135;28;20667;-86
2023/10/16 10:41:15;;;;;;;4.13;2.40;;;;;;;13.26;67.25;98601.16;4168866;28;20624;-85
2023/10/16 10:43:39;;;;;;;3.50;2.30;;;;;;;13.42;67.42;98607.81;4180708;28;20635;-86
2023/10/16 10:45:45;;;;;;;2.80;1.77;;;;;;;13.34;65.54;98604.91;4172213;28;20645;-85
2023/10/16 10:47:54;;;;;;;2.67;1.87;;;;;;;13.39;66.15;98602.78;4174764;28;20684;-86
2023/10/16 10:49:59;;;;;;;2.83;2.10;;;;;;;13.50;65.30;98602.03;4176817;28;21351;-86
2023/10/16 10:52:04;;;;;;;3.10;1.88;;;;;;;13.54;67.28;98601.69;4176321;28;20752;-85
2023/10/16 10:54:12;;;;;;;2.33;2.00;;;;;;;13.58;65.74;98594.47;4157877;28;20214;-85
2023/10/16 10:56:17;;;;;;;3.60;1.80;;;;;;;13.65;65.87;98593.88;4177708;28;20621;-86
2023/10/16 10:58:23;;;;;;;2.53;2.10;;;;;;;13.67;65.77;98590.22;4177733;28;20636;-86
2023/10/16 11:00:46;;;;;;;3.50;2.10;;;;;;;13.64;64.40;98592.22;4176740;28;20621;-85
2023/10/16 11:03:04;;;;;;;1.97;1.70;;;;;;;13.57;63.55;98587.53;4175626;28;20880;-86
2023/10/16 11:05:22;;;;;;;2.43;1.63;;;;;;;13.49;64.79;98579.41;4158997;28;20637;-86
2023/10/16 11:07:34;;;;;;;2.30;1.70;;;;;;;13.51;64.57;98580.94;4172824;28;20635;-86
2023/10/16 11:09:42;;;;;;;2.20;1.73;;;;;;;13.51;64.92;98575.72;4175671;28;20641;-90
2023/10/16 11:11:50;;;;;;;2.47;2.27;;;;;;;13.62;65.20;98577.56;4201514;28;20698;-89
2023/10/16 11:13:54;;;;;;;4.60;2.20;;;;;;;13.59;65.22;98562.06;4160022;28;20638;-90
2023/10/16 11:16:00;;;;;;;2.73;1.87;;;;;;;13.61;66.11;98560.19;4178046;28;20622;-89